createdAt,value
2022-11-17T00:00:50.585Z,11.00
2022-11-17T00:03:37.223Z,11.00
2022-11-17T00:06:23.687Z,11.10
2022-11-17T00:09:17.241Z,11.10
2022-11-17T00:12:22.978Z,11.10
2022-11-17T00:15:10.144Z,11.20
2022-11-17T00:18:10.540Z,11.20
2022-11-17T00:21:14.147Z,11.10
2022-11-17T00:24:00.784Z,11.10
2022-11-17T00:27:00.929Z,11.10
2022-11-17T00:29:48.675Z,11.10
2022-11-17T00:33:07.020Z,11.00
2022-11-17T00:35:54.833Z,11.00
2022-11-17T00:38:41.145Z,11.00
2022-11-17T00:41:28.703Z,11.00
2022-11-17T00:44:15.465Z,10.90
2022-11-17T00:47:03.092Z,10.90
2022-11-17T00:49:49.477Z,10.80
2022-11-17T00:52:35.802Z,10.80
2022-11-17T00:55:23.103Z,10.70
2022-11-17T00:58:09.955Z,10.80
2022-11-17T01:00:56.304Z,10.80
2022-11-17T01:03:44.015Z,10.90
2022-11-17T01:06:32.356Z,10.90
2022-11-17T01:09:20.642Z,11.00
2022-11-17T01:12:07.754Z,11.00
2022-11-17T01:14:54.425Z,11.00
2022-11-17T01:17:41.300Z,11.00
2022-11-17T01:20:29.035Z,11.10
2022-11-17T01:23:15.695Z,11.10
2022-11-17T01:26:03.863Z,11.10
2022-11-17T01:28:51.227Z,11.20
2022-11-17T01:31:39.924Z,11.20
2022-11-17T01:34:26.237Z,11.10
2022-11-17T01:37:22.768Z,11.10
2022-11-17T01:40:13.043Z,11.10
2022-11-17T01:42:59.704Z,11.10
2022-11-17T01:45:46.367Z,11.10
2022-11-17T01:48:33.072Z,11.10
2022-11-17T01:51:20.521Z,11.10
2022-11-17T01:54:10.528Z,11.00
2022-11-17T01:57:00.112Z,11.00
2022-11-17T01:59:50.048Z,11.00
2022-11-17T02:02:38.862Z,11.00
2022-11-17T02:05:36.017Z,11.00
2022-11-17T02:08:25.154Z,11.00
2022-11-17T02:11:16.796Z,10.90
2022-11-17T02:14:04.741Z,10.80
2022-11-17T02:16:51.362Z,10.80
2022-11-17T02:19:40.843Z,10.70
2022-11-17T02:22:47.072Z,10.70
2022-11-17T02:25:51.800Z,10.60
2022-11-17T02:28:45.946Z,10.60
2022-11-17T02:31:44.998Z,10.60
2022-11-17T02:34:39.688Z,10.60
2022-11-17T02:37:32.673Z,10.60
2022-11-17T02:40:24.141Z,10.60
2022-11-17T02:43:31.577Z,10.70
2022-11-17T02:46:22.516Z,10.80
2022-11-17T02:49:14.289Z,10.80
2022-11-17T02:52:02.142Z,10.80
2022-11-17T02:54:48.713Z,10.90
2022-11-17T02:57:36.967Z,10.90
2022-11-17T03:00:23.615Z,11.00
2022-11-17T03:03:28.200Z,11.00
2022-11-17T03:06:26.288Z,11.00
2022-11-17T03:09:24.323Z,10.90
2022-11-17T03:12:16.256Z,10.80
2022-11-17T03:15:09.739Z,10.70
2022-11-17T03:18:05.169Z,10.80
2022-11-17T03:21:02.621Z,10.80
2022-11-17T03:23:52.047Z,10.70
2022-11-17T03:26:44.008Z,10.70
2022-11-17T03:29:34.312Z,10.70
2022-11-17T03:32:23.327Z,10.80
2022-11-17T03:35:15.340Z,10.90
2022-11-17T03:38:08.024Z,10.90
2022-11-17T03:40:59.232Z,11.00
2022-11-17T03:43:48.467Z,11.00
2022-11-17T03:46:37.479Z,10.90
2022-11-17T03:49:33.960Z,11.00
2022-11-17T03:52:21.730Z,10.90
2022-11-17T03:55:11.275Z,10.80
2022-11-17T03:58:03.936Z,10.60
2022-11-17T04:00:53.566Z,10.50
2022-11-17T04:03:40.934Z,10.50
2022-11-17T04:06:27.444Z,10.40
2022-11-17T04:09:13.815Z,10.50
2022-11-17T04:12:18.886Z,10.50
2022-11-17T04:15:23.866Z,10.60
2022-11-17T04:18:10.545Z,10.70
2022-11-17T04:20:58.142Z,10.70
2022-11-17T04:23:44.773Z,10.70
2022-11-17T04:26:48.596Z,10.60
2022-11-17T04:29:36.727Z,10.60
2022-11-17T04:32:24.880Z,10.60
2022-11-17T04:35:11.391Z,10.60
2022-11-17T04:37:57.691Z,10.60
2022-11-17T04:41:04.644Z,10.60
2022-11-17T04:43:50.960Z,10.60
2022-11-17T04:46:40.367Z,10.50
2022-11-17T04:49:27.321Z,10.50
2022-11-17T04:52:13.667Z,10.60
2022-11-17T04:55:00.094Z,10.70
2022-11-17T04:57:46.578Z,10.60
2022-11-17T05:00:33.043Z,10.70
2022-11-17T05:03:20.690Z,10.70
2022-11-17T05:06:07.348Z,10.70
2022-11-17T05:08:55.741Z,10.70
2022-11-17T05:12:00.660Z,10.80
2022-11-17T05:14:50.067Z,10.80
2022-11-17T05:17:35.632Z,10.80
2022-11-17T05:20:26.348Z,10.80
2022-11-17T05:23:30.373Z,10.80
2022-11-17T05:26:17.419Z,10.90
2022-11-17T05:29:06.240Z,10.80
2022-11-17T05:31:52.895Z,10.90
2022-11-17T05:34:39.480Z,10.90
2022-11-17T05:37:27.206Z,10.90
2022-11-17T05:40:13.882Z,10.90
2022-11-17T05:43:00.277Z,11.00
2022-11-17T05:45:46.956Z,11.00
2022-11-17T05:48:34.139Z,11.00
2022-11-17T05:51:22.847Z,11.00
2022-11-17T05:54:10.899Z,11.00
2022-11-17T05:57:01.401Z,11.00
2022-11-17T05:59:51.719Z,11.00
2022-11-17T06:02:43.577Z,11.10
2022-11-17T06:05:29.935Z,11.10
2022-11-17T06:08:16.307Z,11.10
2022-11-17T06:11:04.105Z,11.10
2022-11-17T06:13:50.794Z,11.10
2022-11-17T06:16:44.985Z,11.20
2022-11-17T06:19:35.651Z,11.20
2022-11-17T06:22:22.428Z,11.10
2022-11-17T06:25:10.638Z,11.10
2022-11-17T06:27:59.685Z,11.00
2022-11-17T06:30:46.317Z,11.10
2022-11-17T06:33:35.033Z,11.00
2022-11-17T06:36:22.028Z,11.00
2022-11-17T06:39:08.756Z,11.10
2022-11-17T06:41:55.192Z,11.10
2022-11-17T06:44:43.119Z,11.10
2022-11-17T06:47:29.317Z,11.20
2022-11-17T06:50:15.932Z,11.10
2022-11-17T06:53:04.537Z,11.10
2022-11-17T06:55:52.843Z,11.10
2022-11-17T06:58:41.368Z,11.10
2022-11-17T07:01:29.841Z,11.00
2022-11-17T07:04:16.357Z,11.00
2022-11-17T07:07:03.060Z,11.00
2022-11-17T07:09:49.863Z,11.00
2022-11-17T07:12:36.229Z,10.80
2022-11-17T07:15:23.337Z,10.70
2022-11-17T07:18:11.269Z,10.80
2022-11-17T07:21:01.024Z,10.90
2022-11-17T07:23:47.654Z,10.90
2022-11-17T07:26:34.408Z,10.80
2022-11-17T07:29:21.389Z,10.80
2022-11-17T07:32:08.171Z,10.80
2022-11-17T07:34:57.138Z,10.80
2022-11-17T07:37:43.503Z,10.90
2022-11-17T07:40:30.711Z,11.00
2022-11-17T07:43:17.188Z,11.00
2022-11-17T07:46:05.019Z,11.10
2022-11-17T07:48:55.252Z,11.20
2022-11-17T07:51:43.168Z,11.30
2022-11-17T07:54:29.662Z,11.40
2022-11-17T07:57:17.023Z,11.50
2022-11-17T08:00:04.731Z,11.60
2022-11-17T08:03:03.507Z,11.80
2022-11-17T08:05:50.017Z,11.90
2022-11-17T08:08:39.000Z,12.00
2022-11-17T08:11:28.250Z,12.20
2022-11-17T08:14:14.693Z,12.30
2022-11-17T08:17:02.132Z,12.50
2022-11-17T08:19:49.028Z,12.60
2022-11-17T08:22:35.647Z,12.70
2022-11-17T08:25:25.489Z,12.80
2022-11-17T08:28:11.827Z,13.00
2022-11-17T08:30:58.483Z,13.20
2022-11-17T08:33:45.041Z,13.30
2022-11-17T08:36:32.036Z,13.20
2022-11-17T08:39:18.573Z,13.20
2022-11-17T08:42:06.867Z,13.20
2022-11-17T08:44:53.526Z,13.30
2022-11-17T08:47:40.779Z,13.30
2022-11-17T08:50:28.172Z,13.30
2022-11-17T08:53:15.662Z,13.40
2022-11-17T08:56:02.358Z,13.50
2022-11-17T08:58:50.290Z,13.70
2022-11-17T09:01:37.373Z,14.00
2022-11-17T09:04:24.175Z,14.10
2022-11-17T09:07:10.611Z,14.20
2022-11-17T09:09:57.558Z,14.10
2022-11-17T09:12:44.540Z,14.20
2022-11-17T09:15:32.940Z,14.20
2022-11-17T09:18:19.431Z,14.10
2022-11-17T09:21:08.476Z,14.10
2022-11-17T09:23:55.248Z,14.00
2022-11-17T09:26:42.045Z,13.90
2022-11-17T09:29:28.853Z,13.90
2022-11-17T09:32:17.314Z,14.00
2022-11-17T09:35:07.000Z,14.00
2022-11-17T09:37:53.333Z,14.10
2022-11-17T09:40:41.424Z,14.10
2022-11-17T09:43:30.986Z,14.20
2022-11-17T09:46:22.822Z,14.20
2022-11-17T09:49:15.626Z,14.10
2022-11-17T09:52:10.353Z,14.10
2022-11-17T09:55:00.344Z,14.00
2022-11-17T09:57:49.867Z,14.00
2022-11-17T10:00:38.033Z,14.30
2022-11-17T10:03:29.347Z,14.40
2022-11-17T10:06:20.880Z,14.40
2022-11-17T10:09:24.037Z,14.40
2022-11-17T10:12:17.832Z,14.40
2022-11-17T10:15:21.713Z,14.40
2022-11-17T10:18:13.452Z,14.50
2022-11-17T10:21:00.043Z,14.70
2022-11-17T10:23:57.059Z,14.70
2022-11-17T10:26:48.448Z,14.60
2022-11-17T10:29:34.882Z,14.50
2022-11-17T10:32:21.307Z,14.50
2022-11-17T10:35:15.889Z,14.60
2022-11-17T10:38:05.174Z,14.70
2022-11-17T10:40:54.566Z,14.60
2022-11-17T10:43:43.747Z,14.50
2022-11-17T10:46:41.615Z,14.40
2022-11-17T10:49:34.860Z,14.30
2022-11-17T10:52:24.670Z,14.30
2022-11-17T10:55:24.528Z,14.10
2022-11-17T10:58:25.594Z,14.00
2022-11-17T11:01:12.612Z,13.90
2022-11-17T11:03:59.577Z,13.80
2022-11-17T11:06:46.383Z,13.80
2022-11-17T11:09:33.509Z,13.80
2022-11-17T11:12:25.531Z,13.80
2022-11-17T11:15:20.026Z,14.10
2022-11-17T11:18:13.155Z,14.60
2022-11-17T11:21:08.362Z,14.90
2022-11-17T11:24:03.985Z,15.20
2022-11-17T11:27:00.433Z,15.30
2022-11-17T11:29:57.160Z,15.50
2022-11-17T11:33:04.258Z,15.60
2022-11-17T11:36:06.291Z,15.50
2022-11-17T11:39:02.868Z,15.60
2022-11-17T11:42:15.654Z,15.60
2022-11-17T11:45:16.111Z,15.70
2022-11-17T11:48:15.222Z,15.80
2022-11-17T11:51:06.269Z,15.60
2022-11-17T11:53:57.470Z,15.60
2022-11-17T11:56:46.020Z,15.50
2022-11-17T11:59:42.204Z,15.50
2022-11-17T12:02:35.737Z,15.50
2022-11-17T12:05:30.091Z,15.50
2022-11-17T12:08:26.130Z,15.60
2022-11-17T12:11:29.132Z,15.50
2022-11-17T12:14:18.708Z,15.60
2022-11-17T12:17:17.138Z,15.30
2022-11-17T12:20:10.843Z,15.10
2022-11-17T12:23:11.398Z,15.00
2022-11-17T12:25:59.805Z,14.90
2022-11-17T12:28:46.451Z,15.20
2022-11-17T12:31:44.077Z,15.20
2022-11-17T12:34:32.654Z,15.40
2022-11-17T12:37:23.000Z,15.60
2022-11-17T12:40:46.053Z,15.70
2022-11-17T12:43:33.024Z,15.60
2022-11-17T12:46:33.808Z,15.40
2022-11-17T12:49:29.948Z,15.20
2022-11-17T12:52:24.438Z,14.90
2022-11-17T12:55:20.387Z,14.60
2022-11-17T12:58:19.402Z,14.50
2022-11-17T13:01:13.962Z,14.30
2022-11-17T13:04:06.486Z,14.30
2022-11-17T13:07:01.819Z,14.20
2022-11-17T13:09:52.492Z,14.00
2022-11-17T13:12:38.885Z,13.90
2022-11-17T13:15:27.158Z,13.80
2022-11-17T13:18:24.512Z,13.90
2022-11-17T13:21:28.771Z,13.70
2022-11-17T13:24:30.456Z,13.50
2022-11-17T13:27:24.089Z,13.40
2022-11-17T13:30:15.142Z,13.30
2022-11-17T13:33:04.035Z,13.20
2022-11-17T13:35:51.662Z,13.00
2022-11-17T13:38:38.189Z,12.90
2022-11-17T13:41:26.737Z,12.80
2022-11-17T13:44:16.289Z,12.90
2022-11-17T13:47:21.277Z,12.90
2022-11-17T13:50:41.001Z,13.00
2022-11-17T13:53:27.962Z,13.20
2022-11-17T13:56:27.454Z,13.10
2022-11-17T13:59:26.268Z,13.10
2022-11-17T14:02:33.978Z,13.20
2022-11-17T14:05:23.925Z,13.20
2022-11-17T14:08:27.062Z,13.30
2022-11-17T14:11:24.432Z,13.40
2022-11-17T14:14:14.590Z,13.40
2022-11-17T14:17:13.012Z,13.50
2022-11-17T14:20:19.920Z,13.50
2022-11-17T14:23:18.881Z,13.50
2022-11-17T14:26:05.583Z,13.50
2022-11-17T14:28:52.804Z,13.30
2022-11-17T14:31:39.479Z,13.20
2022-11-17T14:34:25.888Z,13.10
2022-11-17T14:37:12.786Z,13.10
2022-11-17T14:40:03.713Z,13.10
2022-11-17T14:42:50.673Z,13.20
2022-11-17T14:45:37.718Z,13.30
2022-11-17T14:48:24.833Z,13.30
2022-11-17T14:51:11.312Z,12.90
2022-11-17T14:53:58.113Z,12.90
2022-11-17T14:56:45.849Z,12.70
2022-11-17T14:59:33.384Z,12.50
2022-11-17T15:02:20.368Z,12.40
2022-11-17T15:05:07.865Z,12.20
2022-11-17T15:07:56.609Z,12.20
2022-11-17T15:10:46.733Z,12.30
2022-11-17T15:13:34.724Z,12.20
2022-11-17T15:16:22.536Z,12.20
2022-11-17T15:19:09.626Z,12.30
2022-11-17T15:21:56.062Z,12.30
2022-11-17T15:24:42.549Z,12.50
2022-11-17T15:27:29.024Z,12.50
2022-11-17T15:30:17.899Z,12.60
2022-11-17T15:33:04.855Z,12.60
2022-11-17T15:36:01.656Z,12.70
2022-11-17T15:38:48.573Z,12.80
2022-11-17T15:41:35.302Z,12.80
2022-11-17T15:44:22.283Z,12.80
2022-11-17T15:47:10.549Z,12.80
2022-11-17T15:49:58.492Z,12.60
2022-11-17T15:55:51.650Z,11.90
2022-11-17T15:58:39.858Z,11.90
2022-11-17T16:01:28.708Z,11.80
2022-11-17T16:04:17.049Z,11.80
2022-11-17T16:07:04.795Z,11.70
2022-11-17T16:09:52.738Z,11.60
2022-11-17T16:12:39.453Z,11.80
2022-11-17T16:15:25.894Z,11.90
2022-11-17T16:18:14.271Z,12.00
2022-11-17T16:21:05.478Z,12.10
2022-11-17T16:23:54.524Z,12.10
2022-11-17T16:26:41.211Z,12.10
2022-11-17T16:29:27.525Z,12.30
2022-11-17T16:32:14.078Z,12.40
2022-11-17T16:35:01.061Z,12.30
2022-11-17T16:37:52.041Z,12.30
2022-11-17T16:40:39.442Z,12.10
2022-11-17T16:43:26.078Z,11.90
2022-11-17T16:46:18.280Z,11.70
2022-11-17T16:49:06.669Z,11.50
2022-11-17T16:51:54.722Z,11.60
2022-11-17T16:54:42.728Z,11.50
2022-11-17T16:57:30.149Z,11.20
2022-11-17T17:00:17.811Z,11.20
2022-11-17T17:03:04.425Z,11.30
2022-11-17T17:05:51.297Z,11.30
2022-11-17T17:08:38.065Z,11.50
2022-11-17T17:11:27.225Z,11.50
2022-11-17T17:14:15.479Z,11.70
2022-11-17T17:17:01.824Z,11.80
2022-11-17T17:19:48.291Z,11.80
2022-11-17T17:22:34.695Z,11.90
2022-11-17T17:25:21.221Z,12.00
2022-11-17T17:28:09.829Z,12.00
2022-11-17T17:30:56.877Z,12.00
2022-11-17T17:33:43.613Z,11.90
2022-11-17T17:36:30.600Z,12.00
2022-11-17T17:39:17.768Z,12.00
2022-11-17T17:42:06.334Z,12.10
2022-11-17T17:44:54.569Z,12.10
2022-11-17T17:47:41.266Z,12.00
2022-11-17T17:50:31.349Z,11.70
2022-11-17T17:53:17.784Z,11.60
2022-11-17T17:56:09.520Z,11.70
2022-11-17T17:58:56.690Z,11.80
2022-11-17T18:01:46.040Z,11.80
2022-11-17T18:04:32.566Z,11.40
2022-11-17T18:07:19.102Z,11.20
2022-11-17T18:10:06.796Z,11.00
2022-11-17T18:12:53.132Z,11.10
2022-11-17T18:15:41.328Z,10.90
2022-11-17T18:18:29.142Z,10.80
2022-11-17T18:21:17.622Z,10.80
2022-11-17T18:24:04.641Z,10.80
2022-11-17T18:26:51.463Z,10.90
2022-11-17T18:29:38.087Z,10.90
2022-11-17T18:32:24.408Z,10.90
2022-11-17T18:35:12.212Z,10.90
2022-11-17T18:37:58.435Z,11.00
2022-11-17T18:40:45.729Z,11.20
2022-11-17T18:43:33.074Z,11.20
2022-11-17T18:46:23.431Z,11.00
2022-11-17T18:49:10.061Z,11.00
2022-11-17T18:51:57.786Z,11.00
2022-11-17T18:54:44.397Z,11.00
2022-11-17T18:57:30.903Z,11.20
2022-11-17T19:00:18.528Z,11.20
2022-11-17T19:03:05.168Z,11.10
2022-11-17T19:05:51.804Z,10.90
2022-11-17T19:08:39.752Z,10.80
2022-11-17T19:11:26.992Z,10.80
2022-11-17T19:14:13.771Z,10.90
2022-11-17T19:17:00.279Z,10.90
2022-11-17T19:19:46.849Z,11.00
2022-11-17T19:22:35.223Z,10.90
2022-11-17T19:25:23.786Z,11.00
2022-11-17T19:28:13.296Z,11.00
2022-11-17T19:31:03.979Z,11.00
2022-11-17T19:33:51.186Z,10.90
2022-11-17T19:36:37.685Z,10.90
2022-11-17T19:39:25.219Z,10.90
2022-11-17T19:42:13.338Z,10.90
2022-11-17T19:44:59.823Z,10.90
2022-11-17T19:47:46.424Z,10.90
2022-11-17T19:50:33.697Z,10.90
2022-11-17T19:53:20.225Z,11.00
2022-11-17T19:56:08.009Z,11.00
2022-11-17T19:58:56.346Z,11.00
2022-11-17T20:01:42.905Z,11.00
2022-11-17T20:04:29.755Z,11.00
2022-11-17T20:07:16.683Z,11.00
2022-11-17T20:10:03.526Z,11.00
2022-11-17T20:12:50.436Z,11.10
2022-11-17T20:15:38.867Z,11.10
2022-11-17T20:18:25.221Z,11.00
2022-11-17T20:21:13.945Z,11.00
2022-11-17T20:24:01.783Z,10.90
2022-11-17T20:26:49.057Z,10.80
2022-11-17T20:29:36.094Z,10.80
2022-11-17T20:32:24.185Z,10.70
2022-11-17T20:35:11.432Z,10.70
2022-11-17T20:37:58.153Z,10.60
2022-11-17T20:40:44.491Z,10.80
2022-11-17T20:43:31.107Z,10.80
2022-11-17T20:46:18.223Z,10.90
2022-11-17T20:49:06.488Z,10.90
2022-11-17T20:51:53.377Z,10.90
2022-11-17T20:54:39.874Z,10.90
2022-11-17T20:57:26.372Z,11.00
2022-11-17T21:00:13.852Z,10.90
2022-11-17T21:03:00.479Z,11.00
2022-11-17T21:05:58.822Z,11.00
2022-11-17T21:08:46.886Z,11.00
2022-11-17T21:12:05.740Z,11.10
2022-11-17T21:14:52.400Z,11.00
2022-11-17T21:17:56.333Z,10.90
2022-11-17T21:20:43.038Z,10.80
2022-11-17T21:23:31.032Z,10.80
2022-11-17T21:26:17.976Z,10.80
2022-11-17T21:29:06.938Z,10.90
2022-11-17T21:31:53.388Z,10.90
2022-11-17T21:34:39.893Z,10.90
2022-11-17T21:37:27.910Z,10.90
2022-11-17T21:40:15.763Z,10.80
2022-11-17T21:43:02.086Z,10.80
2022-11-17T21:45:48.602Z,10.80
2022-11-17T21:48:35.521Z,10.80
2022-11-17T21:51:23.725Z,10.70
2022-11-17T21:54:10.812Z,10.80
2022-11-17T21:56:59.044Z,10.80
2022-11-17T21:59:46.589Z,10.80
2022-11-17T22:02:32.988Z,10.60
2022-11-17T22:05:19.583Z,10.50
2022-11-17T22:08:06.997Z,10.40
2022-11-17T22:10:53.200Z,10.30
2022-11-17T22:13:41.352Z,10.20
2022-11-17T22:16:27.670Z,10.10
2022-11-17T22:19:15.902Z,10.10
2022-11-17T22:22:02.728Z,10.00
2022-11-17T22:24:50.023Z,10.10
2022-11-17T22:27:36.694Z,10.10
2022-11-17T22:30:24.450Z,10.20
2022-11-17T22:33:10.823Z,10.30
2022-11-17T22:36:00.519Z,10.20
2022-11-17T22:38:50.866Z,10.20
2022-11-17T22:41:37.214Z,10.30
2022-11-17T22:44:24.914Z,10.30
2022-11-17T22:47:13.045Z,10.20
2022-11-17T22:49:59.436Z,10.20
2022-11-17T22:52:45.734Z,10.30
2022-11-17T22:55:34.377Z,10.30
2022-11-17T22:58:21.669Z,10.40
2022-11-17T23:01:08.990Z,10.40
2022-11-17T23:03:57.194Z,10.50
2022-11-17T23:06:44.118Z,10.30
2022-11-17T23:09:31.237Z,10.30
2022-11-17T23:12:17.606Z,10.30
2022-11-17T23:15:04.271Z,10.30
2022-11-17T23:17:51.007Z,10.30
2022-11-17T23:20:38.919Z,10.30
2022-11-17T23:23:26.798Z,10.40
2022-11-17T23:26:14.256Z,10.40
2022-11-17T23:29:00.923Z,10.50
2022-11-17T23:31:47.353Z,10.40
2022-11-17T23:34:33.688Z,10.40
2022-11-17T23:37:22.513Z,10.40
2022-11-17T23:40:10.766Z,10.50
2022-11-17T23:42:57.488Z,10.50
2022-11-17T23:45:44.403Z,10.40
2022-11-17T23:48:30.767Z,10.50
2022-11-17T23:51:19.735Z,10.40
2022-11-17T23:54:07.672Z,10.30
2022-11-17T23:56:54.175Z,10.30
2022-11-17T23:59:40.492Z,10.30
